sensor_id;sensor_type;location;lat;lon;timestamp;temperature;humidity
33476;DHT22;19814;48.224;11.422;2023-04-24T00:01:39;10.90;99.90
33476;DHT22;19814;48.224;11.422;2023-04-24T00:04:05;10.70;99.90
33476;DHT22;19814;48.224;11.422;2023-04-24T00:06:32;10.60;99.90
33476;DHT22;19814;48.224;11.422;2023-04-24T00:09:02;10.50;99.90
33476;DHT22;19814;48.224;11.422;2023-04-24T00:11:29;10.50;99.90
33476;DHT22;19814;48.224;11.422;2023-04-24T00:13:55;10.40;99.90
33476;DHT22;19814;48.224;11.422;2023-04-24T00:16:21;10.40;99.90
33476;DHT22;19814;48.224;11.422;2023-04-24T00:18:47;10.50;99.90
33476;DHT22;19814;48.224;11.422;2023-04-24T00:21:13;10.50;99.90
33476;DHT22;19814;48.224;11.422;2023-04-24T00:23:40;10.40;99.90
33476;DHT22;19814;48.224;11.422;2023-04-24T00:26:05;10.50;99.90
33476;DHT22;19814;48.224;11.422;2023-04-24T00:28:31;10.50;99.90
33476;DHT22;19814;48.224;11.422;2023-04-24T00:30:57;10.50;99.90
33476;DHT22;19814;48.224;11.422;2023-04-24T00:33:22;10.50;99.90
33476;DHT22;19814;48.224;11.422;2023-04-24T00:35:48;10.50;99.90
33476;DHT22;19814;48.224;11.422;2023-04-24T00:38:13;10.40;99.90
33476;DHT22;19814;48.224;11.422;2023-04-24T00:40:39;10.40;99.90
33476;DHT22;19814;48.224;11.422;2023-04-24T00:43:05;10.30;99.90
33476;DHT22;19814;48.224;11.422;2023-04-24T00:45:30;10.30;99.90
33476;DHT22;19814;48.224;11.422;2023-04-24T00:47:57;10.30;99.90
33476;DHT22;19814;48.224;11.422;2023-04-24T00:50:24;10.30;99.90
33476;DHT22;19814;48.224;11.422;2023-04-24T00:52:50;10.30;99.90
33476;DHT22;19814;48.224;11.422;2023-04-24T00:55:16;10.20;99.90
33476;DHT22;19814;48.224;11.422;2023-04-24T00:57:42;10.20;99.90
33476;DHT22;19814;48.224;11.422;2023-04-24T01:00:08;10.20;99.90
33476;DHT22;19814;48.224;11.422;2023-04-24T01:02:41;10.20;99.90
33476;DHT22;19814;48.224;11.422;2023-04-24T01:05:13;10.20;99.90
33476;DHT22;19814;48.224;11.422;2023-04-24T01:07:41;10.30;99.90
33476;DHT22;19814;48.224;11.422;2023-04-24T01:10:09;10.20;99.90
33476;DHT22;19814;48.224;11.422;2023-04-24T01:12:35;10.20;99.90
33476;DHT22;19814;48.224;11.422;2023-04-24T01:15:01;10.20;99.90
33476;DHT22;19814;48.224;11.422;2023-04-24T01:17:26;10.30;99.90
33476;DHT22;19814;48.224;11.422;2023-04-24T01:19:52;10.30;99.90
33476;DHT22;19814;48.224;11.422;2023-04-24T01:22:22;10.40;99.90
33476;DHT22;19814;48.224;11.422;2023-04-24T01:24:48;10.40;99.90
33476;DHT22;19814;48.224;11.422;2023-04-24T01:27:14;10.30;99.90
33476;DHT22;19814;48.224;11.422;2023-04-24T01:29:40;10.30;99.90
33476;DHT22;19814;48.224;11.422;2023-04-24T01:32:06;10.40;99.90
33476;DHT22;19814;48.224;11.422;2023-04-24T01:34:32;10.30;99.90
33476;DHT22;19814;48.224;11.422;2023-04-24T01:36:58;10.40;99.90
33476;DHT22;19814;48.224;11.422;2023-04-24T01:39:24;10.40;99.90
33476;DHT22;19814;48.224;11.422;2023-04-24T01:41:51;10.40;99.90
33476;DHT22;19814;48.224;11.422;2023-04-24T01:44:17;10.40;99.90
33476;DHT22;19814;48.224;11.422;2023-04-24T01:46:43;10.40;99.90
33476;DHT22;19814;48.224;11.422;2023-04-24T01:49:09;10.40;99.90
33476;DHT22;19814;48.224;11.422;2023-04-24T01:51:34;10.40;99.90
33476;DHT22;19814;48.224;11.422;2023-04-24T01:54:00;10.30;99.90
33476;DHT22;19814;48.224;11.422;2023-04-24T01:56:25;10.30;99.90
33476;DHT22;19814;48.224;11.422;2023-04-24T01:58:54;10.20;99.90
33476;DHT22;19814;48.224;11.422;2023-04-24T02:01:20;10.20;99.90
33476;DHT22;19814;48.224;11.422;2023-04-24T02:03:46;10.20;99.90
33476;DHT22;19814;48.224;11.422;2023-04-24T02:06:12;10.10;99.90
33476;DHT22;19814;48.224;11.422;2023-04-24T02:08:37;10.20;99.90
33476;DHT22;19814;48.224;11.422;2023-04-24T02:11:03;10.20;99.90
33476;DHT22;19814;48.224;11.422;2023-04-24T02:13:28;10.20;99.90
33476;DHT22;19814;48.224;11.422;2023-04-24T02:15:54;10.20;99.90
33476;DHT22;19814;48.224;11.422;2023-04-24T02:18:20;10.20;99.90
33476;DHT22;19814;48.224;11.422;2023-04-24T02:20:46;10.20;99.90
33476;DHT22;19814;48.224;11.422;2023-04-24T02:23:11;10.20;99.90
33476;DHT22;19814;48.224;11.422;2023-04-24T02:25:38;10.20;99.90
33476;DHT22;19814;48.224;11.422;2023-04-24T02:28:04;10.30;99.90
33476;DHT22;19814;48.224;11.422;2023-04-24T02:30:29;10.20;99.90
33476;DHT22;19814;48.224;11.422;2023-04-24T02:32:55;10.20;99.90
33476;DHT22;19814;48.224;11.422;2023-04-24T02:35:20;10.20;99.90
33476;DHT22;19814;48.224;11.422;2023-04-24T02:37:46;10.20;99.90
33476;DHT22;19814;48.224;11.422;2023-04-24T02:40:11;10.20;99.90
33476;DHT22;19814;48.224;11.422;2023-04-24T02:42:37;10.20;99.90
33476;DHT22;19814;48.224;11.422;2023-04-24T02:45:03;10.20;99.90
33476;DHT22;19814;48.224;11.422;2023-04-24T02:47:28;10.20;99.90
33476;DHT22;19814;48.224;11.422;2023-04-24T02:49:54;10.10;99.90
33476;DHT22;19814;48.224;11.422;2023-04-24T02:52:19;10.10;99.90
33476;DHT22;19814;48.224;11.422;2023-04-24T02:54:45;10.00;99.90
33476;DHT22;19814;48.224;11.422;2023-04-24T02:57:10;10.00;99.90
33476;DHT22;19814;48.224;11.422;2023-04-24T02:59:36;10.00;99.90
33476;DHT22;19814;48.224;11.422;2023-04-24T03:02:01;9.90;99.90
33476;DHT22;19814;48.224;11.422;2023-04-24T03:04:27;9.90;99.90
33476;DHT22;19814;48.224;11.422;2023-04-24T03:06:52;9.90;99.90
33476;DHT22;19814;48.224;11.422;2023-04-24T03:09:22;9.90;99.90
33476;DHT22;19814;48.224;11.422;2023-04-24T03:11:48;9.90;99.90
33476;DHT22;19814;48.224;11.422;2023-04-24T03:14:15;9.90;99.90
33476;DHT22;19814;48.224;11.422;2023-04-24T03:16:40;9.90;99.90
33476;DHT22;19814;48.224;11.422;2023-04-24T03:19:06;9.80;99.90
33476;DHT22;19814;48.224;11.422;2023-04-24T03:21:32;9.80;99.90
33476;DHT22;19814;48.224;11.422;2023-04-24T03:23:57;9.80;99.90
33476;DHT22;19814;48.224;11.422;2023-04-24T03:26:23;9.90;99.90
33476;DHT22;19814;48.224;11.422;2023-04-24T03:28:48;9.90;99.90
33476;DHT22;19814;48.224;11.422;2023-04-24T03:31:14;9.90;99.90
33476;DHT22;19814;48.224;11.422;2023-04-24T03:33:40;9.90;99.90
33476;DHT22;19814;48.224;11.422;2023-04-24T03:36:06;9.90;99.90
33476;DHT22;19814;48.224;11.422;2023-04-24T03:38:32;9.90;99.90
33476;DHT22;19814;48.224;11.422;2023-04-24T03:40:57;9.90;99.90
33476;DHT22;19814;48.224;11.422;2023-04-24T03:43:23;9.90;99.90
33476;DHT22;19814;48.224;11.422;2023-04-24T03:45:48;9.90;99.90
33476;DHT22;19814;48.224;11.422;2023-04-24T03:48:14;9.80;99.90
33476;DHT22;19814;48.224;11.422;2023-04-24T03:50:39;9.70;99.90
33476;DHT22;19814;48.224;11.422;2023-04-24T03:53:05;9.60;99.90
33476;DHT22;19814;48.224;11.422;2023-04-24T03:55:30;9.50;99.90
33476;DHT22;19814;48.224;11.422;2023-04-24T03:57:56;9.40;99.90
33476;DHT22;19814;48.224;11.422;2023-04-24T04:00:21;9.40;99.90
33476;DHT22;19814;48.224;11.422;2023-04-24T04:02:47;9.30;99.90
33476;DHT22;19814;48.224;11.422;2023-04-24T04:05:12;9.20;99.90
33476;DHT22;19814;48.224;11.422;2023-04-24T04:07:38;9.20;99.90
33476;DHT22;19814;48.224;11.422;2023-04-24T04:10:04;9.20;99.90
33476;DHT22;19814;48.224;11.422;2023-04-24T04:12:29;9.30;99.90
33476;DHT22;19814;48.224;11.422;2023-04-24T04:14:55;9.30;99.90
33476;DHT22;19814;48.224;11.422;2023-04-24T04:17:20;9.30;99.90
33476;DHT22;19814;48.224;11.422;2023-04-24T04:19:46;9.40;99.90
33476;DHT22;19814;48.224;11.422;2023-04-24T04:22:11;9.40;99.90
33476;DHT22;19814;48.224;11.422;2023-04-24T04:24:37;9.50;99.90
33476;DHT22;19814;48.224;11.422;2023-04-24T04:27:06;9.40;99.90
33476;DHT22;19814;48.224;11.422;2023-04-24T04:29:32;9.40;99.90
33476;DHT22;19814;48.224;11.422;2023-04-24T04:31:58;9.40;99.90
33476;DHT22;19814;48.224;11.422;2023-04-24T04:34:23;9.50;99.90
33476;DHT22;19814;48.224;11.422;2023-04-24T04:36:49;9.50;99.90
33476;DHT22;19814;48.224;11.422;2023-04-24T04:39:15;9.50;99.90
33476;DHT22;19814;48.224;11.422;2023-04-24T04:41:41;9.50;99.90
33476;DHT22;19814;48.224;11.422;2023-04-24T04:44:07;9.60;99.90
33476;DHT22;19814;48.224;11.422;2023-04-24T04:46:34;9.70;99.90
33476;DHT22;19814;48.224;11.422;2023-04-24T04:49:03;9.70;99.90
33476;DHT22;19814;48.224;11.422;2023-04-24T04:51:28;9.80;99.90
33476;DHT22;19814;48.224;11.422;2023-04-24T04:53:54;9.80;99.90
33476;DHT22;19814;48.224;11.422;2023-04-24T04:56:20;9.80;99.90
33476;DHT22;19814;48.224;11.422;2023-04-24T04:58:46;9.80;99.90
33476;DHT22;19814;48.224;11.422;2023-04-24T05:01:11;9.90;99.90
33476;DHT22;19814;48.224;11.422;2023-04-24T05:03:36;9.80;99.90
33476;DHT22;19814;48.224;11.422;2023-04-24T05:06:02;9.80;99.90
33476;DHT22;19814;48.224;11.422;2023-04-24T05:08:28;9.80;99.90
33476;DHT22;19814;48.224;11.422;2023-04-24T05:10:54;9.80;99.90
33476;DHT22;19814;48.224;11.422;2023-04-24T05:13:20;9.90;99.90
33476;DHT22;19814;48.224;11.422;2023-04-24T05:15:46;9.90;99.90
33476;DHT22;19814;48.224;11.422;2023-04-24T05:18:11;9.90;99.90
33476;DHT22;19814;48.224;11.422;2023-04-24T05:20:37;9.90;99.90
33476;DHT22;19814;48.224;11.422;2023-04-24T05:23:02;9.90;99.90
33476;DHT22;19814;48.224;11.422;2023-04-24T05:25:28;10.00;99.90
33476;DHT22;19814;48.224;11.422;2023-04-24T05:27:53;10.10;99.90
33476;DHT22;19814;48.224;11.422;2023-04-24T05:30:19;10.00;99.90
33476;DHT22;19814;48.224;11.422;2023-04-24T05:32:45;10.10;99.90
33476;DHT22;19814;48.224;11.422;2023-04-24T05:35:11;10.10;99.90
33476;DHT22;19814;48.224;11.422;2023-04-24T05:37:37;10.20;99.90
33476;DHT22;19814;48.224;11.422;2023-04-24T05:40:03;10.20;99.90
33476;DHT22;19814;48.224;11.422;2023-04-24T05:42:30;10.20;99.90
33476;DHT22;19814;48.224;11.422;2023-04-24T05:44:56;10.20;99.90
33476;DHT22;19814;48.224;11.422;2023-04-24T05:47:21;10.30;99.90
33476;DHT22;19814;48.224;11.422;2023-04-24T05:49:47;10.40;99.90
33476;DHT22;19814;48.224;11.422;2023-04-24T05:52:13;10.40;99.90
33476;DHT22;19814;48.224;11.422;2023-04-24T05:54:38;10.50;99.90
33476;DHT22;19814;48.224;11.422;2023-04-24T05:57:04;10.50;99.90
33476;DHT22;19814;48.224;11.422;2023-04-24T05:59:33;10.60;99.90
33476;DHT22;19814;48.224;11.422;2023-04-24T06:01:59;10.70;99.90
33476;DHT22;19814;48.224;11.422;2023-04-24T06:04:25;10.80;99.90
33476;DHT22;19814;48.224;11.422;2023-04-24T06:06:50;11.00;99.90
33476;DHT22;19814;48.224;11.422;2023-04-24T06:09:21;11.20;99.90
33476;DHT22;19814;48.224;11.422;2023-04-24T06:11:47;11.30;99.90
33476;DHT22;19814;48.224;11.422;2023-04-24T06:14:12;11.50;99.90
33476;DHT22;19814;48.224;11.422;2023-04-24T06:16:39;11.40;99.90
33476;DHT22;19814;48.224;11.422;2023-04-24T06:19:05;11.40;99.90
33476;DHT22;19814;48.224;11.422;2023-04-24T06:21:30;11.40;99.90
33476;DHT22;19814;48.224;11.422;2023-04-24T06:23:56;11.50;99.90
33476;DHT22;19814;48.224;11.422;2023-04-24T06:26:23;11.60;99.90
33476;DHT22;19814;48.224;11.422;2023-04-24T06:28:50;11.70;99.90
33476;DHT22;19814;48.224;11.422;2023-04-24T06:31:16;11.70;99.90
33476;DHT22;19814;48.224;11.422;2023-04-24T06:33:42;11.80;99.90
33476;DHT22;19814;48.224;11.422;2023-04-24T06:36:08;11.90;99.90
33476;DHT22;19814;48.224;11.422;2023-04-24T06:38:34;12.00;99.90
33476;DHT22;19814;48.224;11.422;2023-04-24T06:40:59;12.00;99.90
33476;DHT22;19814;48.224;11.422;2023-04-24T06:43:25;12.20;99.90
33476;DHT22;19814;48.224;11.422;2023-04-24T06:45:51;12.30;99.90
33476;DHT22;19814;48.224;11.422;2023-04-24T06:48:16;12.30;99.90
33476;DHT22;19814;48.224;11.422;2023-04-24T06:50:42;12.40;99.90
33476;DHT22;19814;48.224;11.422;2023-04-24T06:53:07;12.50;99.90
33476;DHT22;19814;48.224;11.422;2023-04-24T06:55:33;12.60;99.90
33476;DHT22;19814;48.224;11.422;2023-04-24T06:57:59;12.60;99.90
33476;DHT22;19814;48.224;11.422;2023-04-24T07:00:24;12.70;99.90
33476;DHT22;19814;48.224;11.422;2023-04-24T07:02:50;12.90;99.90
33476;DHT22;19814;48.224;11.422;2023-04-24T07:05:16;13.00;99.90
33476;DHT22;19814;48.224;11.422;2023-04-24T07:07:46;13.00;99.90
33476;DHT22;19814;48.224;11.422;2023-04-24T07:10:12;13.20;99.90
33476;DHT22;19814;48.224;11.422;2023-04-24T07:12:38;13.40;99.90
33476;DHT22;19814;48.224;11.422;2023-04-24T07:15:04;13.50;99.90
33476;DHT22;19814;48.224;11.422;2023-04-24T07:17:30;13.60;99.90
33476;DHT22;19814;48.224;11.422;2023-04-24T07:19:56;13.70;99.90
33476;DHT22;19814;48.224;11.422;2023-04-24T07:22:21;13.40;99.90
33476;DHT22;19814;48.224;11.422;2023-04-24T07:24:47;13.40;99.90
33476;DHT22;19814;48.224;11.422;2023-04-24T07:27:12;13.50;99.90
33476;DHT22;19814;48.224;11.422;2023-04-24T07:29:40;13.50;99.90
33476;DHT22;19814;48.224;11.422;2023-04-24T07:32:05;13.30;99.90
33476;DHT22;19814;48.224;11.422;2023-04-24T07:34:31;13.10;99.90
33476;DHT22;19814;48.224;11.422;2023-04-24T07:36:57;13.10;99.90
33476;DHT22;19814;48.224;11.422;2023-04-24T07:39:23;13.10;99.90
33476;DHT22;19814;48.224;11.422;2023-04-24T07:41:49;13.00;99.90
33476;DHT22;19814;48.224;11.422;2023-04-24T07:44:14;13.00;99.90
33476;DHT22;19814;48.224;11.422;2023-04-24T07:46:40;13.00;99.90
33476;DHT22;19814;48.224;11.422;2023-04-24T07:49:05;13.00;99.90
33476;DHT22;19814;48.224;11.422;2023-04-24T07:51:31;13.00;99.90
33476;DHT22;19814;48.224;11.422;2023-04-24T07:53:58;13.00;99.90
33476;DHT22;19814;48.224;11.422;2023-04-24T07:56:24;13.00;99.90
33476;DHT22;19814;48.224;11.422;2023-04-24T07:58:50;13.00;99.90
33476;DHT22;19814;48.224;11.422;2023-04-24T08:01:16;13.00;99.90
33476;DHT22;19814;48.224;11.422;2023-04-24T08:03:41;13.00;99.90
33476;DHT22;19814;48.224;11.422;2023-04-24T08:06:07;13.00;99.90
33476;DHT22;19814;48.224;11.422;2023-04-24T08:08:32;13.00;99.90
33476;DHT22;19814;48.224;11.422;2023-04-24T08:10:58;12.90;99.90
33476;DHT22;19814;48.224;11.422;2023-04-24T08:13:24;12.90;99.90
33476;DHT22;19814;48.224;11.422;2023-04-24T08:15:49;12.80;99.90
33476;DHT22;19814;48.224;11.422;2023-04-24T08:18:15;12.70;99.90
33476;DHT22;19814;48.224;11.422;2023-04-24T08:20:41;12.50;99.90
33476;DHT22;19814;48.224;11.422;2023-04-24T08:23:06;12.40;99.90
33476;DHT22;19814;48.224;11.422;2023-04-24T08:25:32;12.40;99.90
33476;DHT22;19814;48.224;11.422;2023-04-24T08:28:01;12.40;99.90
33476;DHT22;19814;48.224;11.422;2023-04-24T08:30:27;12.30;99.90
33476;DHT22;19814;48.224;11.422;2023-04-24T08:32:52;12.10;99.90
33476;DHT22;19814;48.224;11.422;2023-04-24T08:35:18;11.80;99.90
33476;DHT22;19814;48.224;11.422;2023-04-24T08:37:44;11.60;99.90
33476;DHT22;19814;48.224;11.422;2023-04-24T08:40:14;11.40;99.90
33476;DHT22;19814;48.224;11.422;2023-04-24T08:42:42;11.40;99.90
33476;DHT22;19814;48.224;11.422;2023-04-24T08:45:09;11.50;99.90
33476;DHT22;19814;48.224;11.422;2023-04-24T08:47:35;11.70;99.90
33476;DHT22;19814;48.224;11.422;2023-04-24T08:50:03;11.90;99.90
33476;DHT22;19814;48.224;11.422;2023-04-24T08:52:32;12.20;99.90
33476;DHT22;19814;48.224;11.422;2023-04-24T08:55:00;12.40;99.90
33476;DHT22;19814;48.224;11.422;2023-04-24T08:57:26;12.50;99.90
33476;DHT22;19814;48.224;11.422;2023-04-24T08:59:53;12.60;99.90
33476;DHT22;19814;48.224;11.422;2023-04-24T09:02:21;12.70;99.90
33476;DHT22;19814;48.224;11.422;2023-04-24T09:04:47;12.90;99.90
33476;DHT22;19814;48.224;11.422;2023-04-24T09:07:14;13.10;99.90
33476;DHT22;19814;48.224;11.422;2023-04-24T09:09:42;13.20;99.90
33476;DHT22;19814;48.224;11.422;2023-04-24T09:12:08;13.30;99.90
33476;DHT22;19814;48.224;11.422;2023-04-24T09:14:36;13.20;99.90
33476;DHT22;19814;48.224;11.422;2023-04-24T09:17:05;13.20;99.30
33476;DHT22;19814;48.224;11.422;2023-04-24T09:19:31;13.00;99.90
33476;DHT22;19814;48.224;11.422;2023-04-24T09:21:57;13.10;99.90
33476;DHT22;19814;48.224;11.422;2023-04-24T09:24:22;13.20;99.90
33476;DHT22;19814;48.224;11.422;2023-04-24T09:26:49;13.20;99.80
33476;DHT22;19814;48.224;11.422;2023-04-24T09:29:22;13.40;99.90
33476;DHT22;19814;48.224;11.422;2023-04-24T09:31:48;13.60;99.90
33476;DHT22;19814;48.224;11.422;2023-04-24T09:34:13;13.80;99.90
33476;DHT22;19814;48.224;11.422;2023-04-24T09:36:41;14.00;99.80
33476;DHT22;19814;48.224;11.422;2023-04-24T09:39:13;14.20;99.40
33476;DHT22;19814;48.224;11.422;2023-04-24T09:41:55;14.60;99.90
33476;DHT22;19814;48.224;11.422;2023-04-24T09:44:27;14.90;97.00
33476;DHT22;19814;48.224;11.422;2023-04-24T09:49:27;15.20;98.00
33476;DHT22;19814;48.224;11.422;2023-04-24T09:52:03;15.20;96.60
33476;DHT22;19814;48.224;11.422;2023-04-24T09:54:29;15.50;95.80
33476;DHT22;19814;48.224;11.422;2023-04-24T09:56:55;15.70;96.60
33476;DHT22;19814;48.224;11.422;2023-04-24T09:59:22;15.90;97.40
33476;DHT22;19814;48.224;11.422;2023-04-24T10:01:48;16.10;95.30
33476;DHT22;19814;48.224;11.422;2023-04-24T10:04:18;15.90;95.60
33476;DHT22;19814;48.224;11.422;2023-04-24T10:06:44;16.00;95.50
33476;DHT22;19814;48.224;11.422;2023-04-24T10:09:10;16.00;95.10
33476;DHT22;19814;48.224;11.422;2023-04-24T10:11:41;15.70;94.40
33476;DHT22;19814;48.224;11.422;2023-04-24T10:14:10;15.40;95.80
33476;DHT22;19814;48.224;11.422;2023-04-24T10:16:36;15.30;95.40
33476;DHT22;19814;48.224;11.422;2023-04-24T10:19:03;15.60;95.20
33476;DHT22;19814;48.224;11.422;2023-04-24T10:21:28;16.30;96.40
33476;DHT22;19814;48.224;11.422;2023-04-24T10:23:55;17.10;96.60
33476;DHT22;19814;48.224;11.422;2023-04-24T10:26:22;17.80;92.90
33476;DHT22;19814;48.224;11.422;2023-04-24T10:28:48;17.70;92.10
33476;DHT22;19814;48.224;11.422;2023-04-24T10:31:14;17.10;92.10
33476;DHT22;19814;48.224;11.422;2023-04-24T10:33:43;16.50;92.90
33476;DHT22;19814;48.224;11.422;2023-04-24T10:36:12;15.80;93.80
33476;DHT22;19814;48.224;11.422;2023-04-24T10:38:40;15.20;94.50
33476;DHT22;19814;48.224;11.422;2023-04-24T10:41:11;14.70;95.60
33476;DHT22;19814;48.224;11.422;2023-04-24T10:43:42;14.10;99.10
33476;DHT22;19814;48.224;11.422;2023-04-24T10:46:08;13.40;99.70
33476;DHT22;19814;48.224;11.422;2023-04-24T10:48:36;12.60;99.90
33476;DHT22;19814;48.224;11.422;2023-04-24T10:51:11;12.10;99.90
33476;DHT22;19814;48.224;11.422;2023-04-24T10:53:37;11.90;99.90
33476;DHT22;19814;48.224;11.422;2023-04-24T10:59:39;11.80;99.90
33476;DHT22;19814;48.224;11.422;2023-04-24T11:02:07;12.00;99.90
33476;DHT22;19814;48.224;11.422;2023-04-24T11:04:33;12.20;99.90
33476;DHT22;19814;48.224;11.422;2023-04-24T11:07:00;12.50;99.90
33476;DHT22;19814;48.224;11.422;2023-04-24T11:09:27;12.90;99.90
33476;DHT22;19814;48.224;11.422;2023-04-24T11:12:06;13.50;99.90
33476;DHT22;19814;48.224;11.422;2023-04-24T11:15:02;14.40;99.90
33476;DHT22;19814;48.224;11.422;2023-04-24T11:17:38;15.10;99.70
33476;DHT22;19814;48.224;11.422;2023-04-24T11:20:15;14.60;99.60
33476;DHT22;19814;48.224;11.422;2023-04-24T11:22:41;13.80;99.90
33476;DHT22;19814;48.224;11.422;2023-04-24T11:25:10;13.30;99.90
33476;DHT22;19814;48.224;11.422;2023-04-24T11:27:44;13.30;99.90
33476;DHT22;19814;48.224;11.422;2023-04-24T11:30:11;13.40;99.90
33476;DHT22;19814;48.224;11.422;2023-04-24T11:32:42;13.60;99.90
33476;DHT22;19814;48.224;11.422;2023-04-24T11:35:17;13.80;99.90
33476;DHT22;19814;48.224;11.422;2023-04-24T11:37:48;14.20;99.90
33476;DHT22;19814;48.224;11.422;2023-04-24T11:40:18;15.10;98.30
33476;DHT22;19814;48.224;11.422;2023-04-24T11:42:47;16.10;97.30
33476;DHT22;19814;48.224;11.422;2023-04-24T11:45:18;17.60;96.40
33476;DHT22;19814;48.224;11.422;2023-04-24T11:47:44;19.40;94.80
33476;DHT22;19814;48.224;11.422;2023-04-24T11:50:16;20.30;91.50
33476;DHT22;19814;48.224;11.422;2023-04-24T11:52:42;20.30;88.80
33476;DHT22;19814;48.224;11.422;2023-04-24T11:55:24;20.50;89.20
33476;DHT22;19814;48.224;11.422;2023-04-24T11:57:56;21.00;88.90
33476;DHT22;19814;48.224;11.422;2023-04-24T12:00:30;21.40;82.70
33476;DHT22;19814;48.224;11.422;2023-04-24T12:03:11;20.80;81.70
33476;DHT22;19814;48.224;11.422;2023-04-24T12:05:38;19.60;83.60
33476;DHT22;19814;48.224;11.422;2023-04-24T12:08:04;18.40;86.20
33476;DHT22;19814;48.224;11.422;2023-04-24T12:10:31;17.60;90.00
33476;DHT22;19814;48.224;11.422;2023-04-24T12:12:58;17.20;90.70
33476;DHT22;19814;48.224;11.422;2023-04-24T12:15:24;16.80;90.20
33476;DHT22;19814;48.224;11.422;2023-04-24T12:17:52;17.20;90.40
33476;DHT22;19814;48.224;11.422;2023-04-24T12:20:23;17.70;90.60
33476;DHT22;19814;48.224;11.422;2023-04-24T12:22:55;18.10;87.40
33476;DHT22;19814;48.224;11.422;2023-04-24T12:25:23;18.00;87.10
33476;DHT22;19814;48.224;11.422;2023-04-24T12:30:29;17.30;84.80
33476;DHT22;19814;48.224;11.422;2023-04-24T12:32:57;17.10;86.20
33476;DHT22;19814;48.224;11.422;2023-04-24T12:35:24;17.30;87.70
33476;DHT22;19814;48.224;11.422;2023-04-24T12:37:50;17.30;86.00
33476;DHT22;19814;48.224;11.422;2023-04-24T12:40:18;17.30;86.50
33476;DHT22;19814;48.224;11.422;2023-04-24T12:45:12;17.50;84.70
33476;DHT22;19814;48.224;11.422;2023-04-24T12:47:39;17.40;85.10
33476;DHT22;19814;48.224;11.422;2023-04-24T12:50:07;16.40;81.30
33476;DHT22;19814;48.224;11.422;2023-04-24T12:52:33;15.40;86.00
33476;DHT22;19814;48.224;11.422;2023-04-24T12:54:59;14.90;88.60
33476;DHT22;19814;48.224;11.422;2023-04-24T12:57:27;14.70;89.70
33476;DHT22;19814;48.224;11.422;2023-04-24T12:59:57;14.60;90.20
33476;DHT22;19814;48.224;11.422;2023-04-24T13:02:24;14.50;90.60
33476;DHT22;19814;48.224;11.422;2023-04-24T13:04:50;14.40;89.80
33476;DHT22;19814;48.224;11.422;2023-04-24T13:07:16;14.30;89.60
33476;DHT22;19814;48.224;11.422;2023-04-24T13:09:43;14.30;89.80
33476;DHT22;19814;48.224;11.422;2023-04-24T13:12:09;14.70;90.40
33476;DHT22;19814;48.224;11.422;2023-04-24T13:14:35;15.10;90.20
33476;DHT22;19814;48.224;11.422;2023-04-24T13:17:01;15.60;89.90
33476;DHT22;19814;48.224;11.422;2023-04-24T13:19:27;16.00;88.00
33476;DHT22;19814;48.224;11.422;2023-04-24T13:21:56;16.30;88.50
33476;DHT22;19814;48.224;11.422;2023-04-24T13:24:23;16.60;89.20
33476;DHT22;19814;48.224;11.422;2023-04-24T13:26:54;16.70;83.80
33476;DHT22;19814;48.224;11.422;2023-04-24T13:29:22;16.60;82.10
33476;DHT22;19814;48.224;11.422;2023-04-24T13:31:49;16.50;82.50
33476;DHT22;19814;48.224;11.422;2023-04-24T13:34:15;16.30;87.40
33476;DHT22;19814;48.224;11.422;2023-04-24T13:36:40;16.30;88.50
33476;DHT22;19814;48.224;11.422;2023-04-24T13:39:06;16.40;84.50
33476;DHT22;19814;48.224;11.422;2023-04-24T13:41:33;16.50;83.90
33476;DHT22;19814;48.224;11.422;2023-04-24T13:43:58;16.50;80.60
33476;DHT22;19814;48.224;11.422;2023-04-24T13:46:24;16.30;79.90
33476;DHT22;19814;48.224;11.422;2023-04-24T13:48:50;16.10;81.00
33476;DHT22;19814;48.224;11.422;2023-04-24T13:51:15;16.10;82.10
33476;DHT22;19814;48.224;11.422;2023-04-24T13:53:41;15.80;82.20
33476;DHT22;19814;48.224;11.422;2023-04-24T13:56:06;15.40;85.90
33476;DHT22;19814;48.224;11.422;2023-04-24T13:58:33;15.10;85.50
33476;DHT22;19814;48.224;11.422;2023-04-24T14:00:58;14.80;86.70
33476;DHT22;19814;48.224;11.422;2023-04-24T14:03:24;14.60;85.80
33476;DHT22;19814;48.224;11.422;2023-04-24T14:05:49;14.60;87.40
33476;DHT22;19814;48.224;11.422;2023-04-24T14:08:15;14.80;84.70
33476;DHT22;19814;48.224;11.422;2023-04-24T14:10:42;14.90;86.40
33476;DHT22;19814;48.224;11.422;2023-04-24T14:13:07;15.00;85.30
33476;DHT22;19814;48.224;11.422;2023-04-24T14:15:35;15.10;85.00
33476;DHT22;19814;48.224;11.422;2023-04-24T14:18:01;15.30;85.10
33476;DHT22;19814;48.224;11.422;2023-04-24T14:20:27;15.30;84.70
33476;DHT22;19814;48.224;11.422;2023-04-24T14:22:52;15.20;83.00
33476;DHT22;19814;48.224;11.422;2023-04-24T14:25:18;15.10;83.70
33476;DHT22;19814;48.224;11.422;2023-04-24T14:27:44;14.90;83.20
33476;DHT22;19814;48.224;11.422;2023-04-24T14:30:10;14.80;84.80
33476;DHT22;19814;48.224;11.422;2023-04-24T14:32:36;14.80;86.50
33476;DHT22;19814;48.224;11.422;2023-04-24T14:35:01;14.90;84.90
33476;DHT22;19814;48.224;11.422;2023-04-24T14:37:27;15.00;82.30
33476;DHT22;19814;48.224;11.422;2023-04-24T14:39:53;15.00;83.90
33476;DHT22;19814;48.224;11.422;2023-04-24T14:42:18;15.10;85.90
33476;DHT22;19814;48.224;11.422;2023-04-24T14:44:44;15.10;82.20
33476;DHT22;19814;48.224;11.422;2023-04-24T14:47:09;15.10;83.30
33476;DHT22;19814;48.224;11.422;2023-04-24T14:49:35;15.00;83.10
33476;DHT22;19814;48.224;11.422;2023-04-24T14:52:00;15.00;80.80
33476;DHT22;19814;48.224;11.422;2023-04-24T14:54:28;15.10;81.20
33476;DHT22;19814;48.224;11.422;2023-04-24T14:56:54;15.30;85.10
33476;DHT22;19814;48.224;11.422;2023-04-24T14:59:22;15.60;81.30
33476;DHT22;19814;48.224;11.422;2023-04-24T15:01:47;15.70;79.20
33476;DHT22;19814;48.224;11.422;2023-04-24T15:04:13;15.50;78.70
33476;DHT22;19814;48.224;11.422;2023-04-24T15:06:38;15.40;79.30
33476;DHT22;19814;48.224;11.422;2023-04-24T15:09:04;15.40;81.20
33476;DHT22;19814;48.224;11.422;2023-04-24T15:11:30;15.20;78.30
33476;DHT22;19814;48.224;11.422;2023-04-24T15:13:56;15.10;80.00
33476;DHT22;19814;48.224;11.422;2023-04-24T15:16:22;15.10;78.10
33476;DHT22;19814;48.224;11.422;2023-04-24T15:18:48;15.20;82.90
33476;DHT22;19814;48.224;11.422;2023-04-24T15:21:13;15.20;80.10
33476;DHT22;19814;48.224;11.422;2023-04-24T15:23:39;15.20;78.60
33476;DHT22;19814;48.224;11.422;2023-04-24T15:26:05;15.20;76.40